Impacts METAR Board INFO
IDs:

KFLL - Ft Lauderdale-Hollyw, FL, US

Updated at: 0303 UTC 18 Dec 2017
Potential Impact None Slight Moderate High
Time17/15Z 17/16Z 17/17Z 17/18Z 17/19Z 17/20Z 17/21Z 17/22Z 17/23Z 18/00Z 18/01Z 18/02Z 18/03Z
VIS10 10 10 10 10 10 10 10 10 10 10 10 10
CIG44 250 250 250 -- -- -- 350 350 350 250 55 80
CoverBKNBKNBKNBKNSCTSCTSCTBKNBKNBKNBKNBKNBKN
FltCatVFRVFRVFRVFRVFRVFRVFRVFRVFRVFRVFRVFRVFR
WX--------------------------
WDir110130120140140110110140120130130140140
WSpd14 14 12 11 10 11 11 8 7 7 7 5 5
WGst-- -- -- -- -- -- -- -- -- -- -- -- --
Raw hourly METARs
KFLL 171453Z 11014KT 10SM SCT037 BKN044 BKN050 BKN250 26/19 A3023 RMK AO2 SLP236 T02560194 53008
KFLL 171553Z 13014KT 10SM FEW027 FEW055 BKN250 26/20 A3024 RMK AO2 SLP238 T02560200
KFLL 171653Z 12012KT 10SM SCT025 BKN250 26/21 A3022 RMK AO2 SLP234 T02560211
KFLL 171753Z 14011KT 10SM SCT032 BKN250 26/21 A3019 RMK AO2 SLP222 T02610206 10267 20233 58014
KFLL 171853Z 14010KT 10SM SCT026 SCT250 27/21 A3017 RMK AO2 SLP216 T02670211
KFLL 171953Z 11011KT 10SM SCT025 SCT044 SCT250 26/21 A3017 RMK AO2 SLP215 T02560206
KFLL 172053Z 11011KT 10SM FEW026 FEW060 SCT250 25/21 A3017 RMK AO2 SLP215 T02500211 56007
KFLL 172153Z 14008KT 10SM FEW024 FEW070 SCT250 BKN350 25/21 A3017 RMK AO2 SLP217 T02500211
KFLL 172253Z 12007KT 10SM SCT024 SCT070 SCT250 BKN350 24/21 A3018 RMK AO2 SLP221 T02440211
KFLL 172353Z 13007KT 10SM FEW024 SCT055 SCT250 BKN350 24/21 A3020 RMK AO2 SLP225 T02440211 10267 20244 53010
KFLL 180053Z 13007KT 10SM FEW025 FEW090 BKN250 24/22 A3021 RMK AO2 SLP228 T02440217
KFLL 180153Z 14005KT 10SM FEW023 BKN055 BKN250 24/22 A3022 RMK AO2 SLP232 T02440222
KFLL 180253Z 14005KT 10SM FEW023 SCT055 BKN080 BKN250 24/22 A3023 RMK AO2 SLP235 T02390217 51010